sensor_id;sensor_type;location;lat;lon;timestamp;noise_LAeq;noise_LA_min;noise_LA_max;noise_LA01;noise_LA95
69670;Laerm;66535;52.370;4.832;2023-05-07T00:00:04;43.58;38.66;54.80;;
69670;Laerm;66535;52.370;4.832;2023-05-07T00:00:38;44.68;39.39;54.22;;
69670;Laerm;66535;52.370;4.832;2023-05-07T00:01:28;46.29;38.88;65.55;;
69670;Laerm;66535;52.370;4.832;2023-05-07T00:02:01;43.22;38.74;55.03;;
69670;Laerm;66535;52.370;4.832;2023-05-07T00:02:32;41.51;39.32;56.49;;
69670;Laerm;66535;52.370;4.832;2023-05-07T00:03:03;41.34;38.13;58.07;;
69670;Laerm;66535;52.370;4.832;2023-05-07T00:03:36;42.72;39.40;47.96;;
69670;Laerm;66535;52.370;4.832;2023-05-07T00:04:08;45.63;40.13;54.33;;
69670;Laerm;66535;52.370;4.832;2023-05-07T00:04:39;40.73;38.86;45.32;;
69670;Laerm;66535;52.370;4.832;2023-05-07T00:05:12;45.20;40.47;49.09;;
69670;Laerm;66535;52.370;4.832;2023-05-07T00:05:43;46.21;42.88;51.75;;
69670;Laerm;66535;52.370;4.832;2023-05-07T00:06:14;45.45;40.49;51.05;;
69670;Laerm;66535;52.370;4.832;2023-05-07T00:06:47;43.15;40.23;50.23;;
69670;Laerm;66535;52.370;4.832;2023-05-07T00:07:19;42.74;39.87;48.67;;
69670;Laerm;66535;52.370;4.832;2023-05-07T00:07:50;47.26;40.19;54.38;;
69670;Laerm;66535;52.370;4.832;2023-05-07T00:08:23;50.65;41.05;59.23;;
69670;Laerm;66535;52.370;4.832;2023-05-07T00:08:55;44.92;40.13;57.75;;
69670;Laerm;66535;52.370;4.832;2023-05-07T00:09:27;44.60;39.09;49.70;;
69670;Laerm;66535;52.370;4.832;2023-05-07T00:09:59;40.57;37.59;47.41;;
69670;Laerm;66535;52.370;4.832;2023-05-07T00:10:30;42.33;38.12;53.87;;
69670;Laerm;66535;52.370;4.832;2023-05-07T00:11:02;47.41;43.30;52.46;;
69670;Laerm;66535;52.370;4.832;2023-05-07T00:11:33;49.26;42.79;57.10;;
69670;Laerm;66535;52.370;4.832;2023-05-07T00:12:05;44.15;39.87;50.12;;
69670;Laerm;66535;52.370;4.832;2023-05-07T00:12:37;40.40;38.66;48.37;;
69670;Laerm;66535;52.370;4.832;2023-05-07T00:13:08;43.77;38.32;55.82;;
69670;Laerm;66535;52.370;4.832;2023-05-07T00:13:40;55.70;42.00;71.46;;
69670;Laerm;66535;52.370;4.832;2023-05-07T00:14:12;60.56;41.49;74.82;;
69670;Laerm;66535;52.370;4.832;2023-05-07T00:14:43;45.35;42.08;57.50;;
69670;Laerm;66535;52.370;4.832;2023-05-07T00:15:16;45.51;40.65;55.10;;
69670;Laerm;66535;52.370;4.832;2023-05-07T00:15:47;41.45;39.11;46.50;;
69670;Laerm;66535;52.370;4.832;2023-05-07T00:16:19;42.27;38.56;53.66;;
69670;Laerm;66535;52.370;4.832;2023-05-07T00:16:51;41.44;38.46;53.10;;
69670;Laerm;66535;52.370;4.832;2023-05-07T00:17:22;44.09;38.92;55.91;;
69670;Laerm;66535;52.370;4.832;2023-05-07T00:17:55;41.34;38.66;46.92;;
69670;Laerm;66535;52.370;4.832;2023-05-07T00:18:28;42.74;39.29;50.03;;
69670;Laerm;66535;52.370;4.832;2023-05-07T00:18:59;45.26;41.29;52.78;;
69670;Laerm;66535;52.370;4.832;2023-05-07T00:19:31;42.20;38.67;49.94;;
69670;Laerm;66535;52.370;4.832;2023-05-07T00:20:04;44.68;39.52;54.67;;
69670;Laerm;66535;52.370;4.832;2023-05-07T00:20:35;45.68;40.68;56.04;;
69670;Laerm;66535;52.370;4.832;2023-05-07T00:21:07;40.95;38.62;45.48;;
69670;Laerm;66535;52.370;4.832;2023-05-07T00:21:39;42.05;38.87;50.67;;
69670;Laerm;66535;52.370;4.832;2023-05-07T00:22:10;42.78;39.39;55.60;;
69670;Laerm;66535;52.370;4.832;2023-05-07T00:22:43;42.35;39.49;50.13;;
69670;Laerm;66535;52.370;4.832;2023-05-07T00:23:16;42.39;39.20;59.74;;
69670;Laerm;66535;52.370;4.832;2023-05-07T00:23:47;45.35;39.72;54.01;;
69670;Laerm;66535;52.370;4.832;2023-05-07T00:24:18;47.79;41.97;56.50;;
69670;Laerm;66535;52.370;4.832;2023-05-07T00:24:50;44.18;40.73;48.69;;
69670;Laerm;66535;52.370;4.832;2023-05-07T00:25:22;43.62;39.33;48.93;;
69670;Laerm;66535;52.370;4.832;2023-05-07T00:25:53;40.64;37.59;45.72;;
69670;Laerm;66535;52.370;4.832;2023-05-07T00:26:25;39.92;36.54;44.63;;
69670;Laerm;66535;52.370;4.832;2023-05-07T00:26:56;45.46;41.27;52.89;;
69670;Laerm;66535;52.370;4.832;2023-05-07T00:27:28;42.79;40.14;46.93;;
69670;Laerm;66535;52.370;4.832;2023-05-07T00:28:04;45.88;40.50;52.96;;
69670;Laerm;66535;52.370;4.832;2023-05-07T00:28:35;47.60;39.85;62.48;;
69670;Laerm;66535;52.370;4.832;2023-05-07T00:29:06;41.96;38.48;54.17;;
69670;Laerm;66535;52.370;4.832;2023-05-07T00:29:39;48.35;39.35;58.85;;
69670;Laerm;66535;52.370;4.832;2023-05-07T00:30:11;46.79;41.99;53.65;;
69670;Laerm;66535;52.370;4.832;2023-05-07T00:30:42;43.26;38.59;48.17;;
69670;Laerm;66535;52.370;4.832;2023-05-07T00:31:13;42.83;38.14;47.08;;
69670;Laerm;66535;52.370;4.832;2023-05-07T00:31:46;45.80;38.99;55.86;;
69670;Laerm;66535;52.370;4.832;2023-05-07T00:32:17;46.12;40.44;54.21;;
69670;Laerm;66535;52.370;4.832;2023-05-07T00:32:52;43.94;40.01;48.67;;
69670;Laerm;66535;52.370;4.832;2023-05-07T00:33:26;42.03;36.85;53.92;;
69670;Laerm;66535;52.370;4.832;2023-05-07T00:33:58;40.17;36.17;57.50;;
69670;Laerm;66535;52.370;4.832;2023-05-07T00:34:29;38.65;36.86;42.40;;
69670;Laerm;66535;52.370;4.832;2023-05-07T00:35:01;39.69;37.27;49.10;;
69670;Laerm;66535;52.370;4.832;2023-05-07T00:35:32;44.29;37.90;52.68;;
69670;Laerm;66535;52.370;4.832;2023-05-07T00:36:04;45.53;39.81;50.62;;
69670;Laerm;66535;52.370;4.832;2023-05-07T00:36:35;42.02;38.92;47.33;;
69670;Laerm;66535;52.370;4.832;2023-05-07T00:37:08;40.63;37.66;52.72;;
69670;Laerm;66535;52.370;4.832;2023-05-07T00:37:39;43.44;39.19;47.38;;
69670;Laerm;66535;52.370;4.832;2023-05-07T00:38:12;41.14;38.29;57.06;;
69670;Laerm;66535;52.370;4.832;2023-05-07T00:38:45;43.22;39.60;47.47;;
69670;Laerm;66535;52.370;4.832;2023-05-07T00:39:16;44.16;40.82;49.53;;
69670;Laerm;66535;52.370;4.832;2023-05-07T00:39:47;46.50;41.47;56.75;;
69670;Laerm;66535;52.370;4.832;2023-05-07T00:40:20;42.20;38.11;53.92;;
69670;Laerm;66535;52.370;4.832;2023-05-07T00:40:51;40.95;37.56;46.71;;
69670;Laerm;66535;52.370;4.832;2023-05-07T00:41:22;41.05;37.31;50.08;;
69670;Laerm;66535;52.370;4.832;2023-05-07T00:41:54;45.72;38.42;51.30;;
69670;Laerm;66535;52.370;4.832;2023-05-07T00:42:26;43.15;38.52;55.93;;
69670;Laerm;66535;52.370;4.832;2023-05-07T00:42:58;40.05;36.26;48.97;;
69670;Laerm;66535;52.370;4.832;2023-05-07T00:43:30;38.53;36.47;42.30;;
69670;Laerm;66535;52.370;4.832;2023-05-07T00:44:03;38.48;36.31;48.84;;
69670;Laerm;66535;52.370;4.832;2023-05-07T00:44:34;42.15;36.43;52.61;;
69670;Laerm;66535;52.370;4.832;2023-05-07T00:45:06;40.17;37.63;43.47;;
69670;Laerm;66535;52.370;4.832;2023-05-07T00:45:40;43.69;40.62;49.41;;
69670;Laerm;66535;52.370;4.832;2023-05-07T00:46:11;44.07;39.62;50.69;;
69670;Laerm;66535;52.370;4.832;2023-05-07T00:46:43;43.74;40.60;47.72;;
69670;Laerm;66535;52.370;4.832;2023-05-07T00:47:15;41.56;38.88;50.97;;
69670;Laerm;66535;52.370;4.832;2023-05-07T00:47:47;42.43;38.68;45.86;;
69670;Laerm;66535;52.370;4.832;2023-05-07T00:48:18;43.62;39.19;49.63;;
69670;Laerm;66535;52.370;4.832;2023-05-07T00:48:51;58.99;41.12;69.98;;
69670;Laerm;66535;52.370;4.832;2023-05-07T00:49:22;61.68;38.81;81.19;;
69670;Laerm;66535;52.370;4.832;2023-05-07T00:49:55;42.17;38.59;51.69;;
69670;Laerm;66535;52.370;4.832;2023-05-07T00:50:29;42.83;38.16;47.69;;
69670;Laerm;66535;52.370;4.832;2023-05-07T00:51:00;40.29;37.97;48.01;;
69670;Laerm;66535;52.370;4.832;2023-05-07T00:51:31;43.40;38.87;49.47;;
69670;Laerm;66535;52.370;4.832;2023-05-07T00:52:06;46.47;40.78;53.04;;
69670;Laerm;66535;52.370;4.832;2023-05-07T00:52:38;42.33;38.69;50.99;;
69670;Laerm;66535;52.370;4.832;2023-05-07T00:53:09;46.27;38.44;54.75;;
69670;Laerm;66535;52.370;4.832;2023-05-07T00:53:43;42.60;37.03;48.82;;
69670;Laerm;66535;52.370;4.832;2023-05-07T00:54:15;41.87;37.97;46.80;;
69670;Laerm;66535;52.370;4.832;2023-05-07T00:54:47;45.56;37.90;68.66;;
69670;Laerm;66535;52.370;4.832;2023-05-07T00:55:18;39.39;36.93;46.12;;
69670;Laerm;66535;52.370;4.832;2023-05-07T00:55:51;40.23;37.02;51.40;;
69670;Laerm;66535;52.370;4.832;2023-05-07T00:56:23;42.00;38.77;51.19;;
69670;Laerm;66535;52.370;4.832;2023-05-07T00:56:54;42.55;38.34;55.95;;
69670;Laerm;66535;52.370;4.832;2023-05-07T00:57:27;43.54;40.26;48.89;;
69670;Laerm;66535;52.370;4.832;2023-05-07T00:57:58;44.88;39.52;54.54;;
69670;Laerm;66535;52.370;4.832;2023-05-07T00:58:29;42.94;38.04;50.30;;
69670;Laerm;66535;52.370;4.832;2023-05-07T00:59:02;40.09;37.25;55.01;;
69670;Laerm;66535;52.370;4.832;2023-05-07T00:59:34;39.11;37.03;41.79;;
69670;Laerm;66535;52.370;4.832;2023-05-07T01:00:07;41.76;37.86;49.82;;
69670;Laerm;66535;52.370;4.832;2023-05-07T01:00:39;49.96;41.12;56.72;;
69670;Laerm;66535;52.370;4.832;2023-05-07T01:01:11;47.44;40.67;56.05;;
69670;Laerm;66535;52.370;4.832;2023-05-07T01:01:42;47.57;40.06;58.58;;
69670;Laerm;66535;52.370;4.832;2023-05-07T01:02:15;42.78;39.52;47.11;;
69670;Laerm;66535;52.370;4.832;2023-05-07T01:02:46;42.71;38.97;46.08;;
69670;Laerm;66535;52.370;4.832;2023-05-07T01:03:17;40.83;38.22;43.45;;
69670;Laerm;66535;52.370;4.832;2023-05-07T01:03:52;48.33;37.33;57.86;;
69670;Laerm;66535;52.370;4.832;2023-05-07T01:04:24;38.02;35.87;39.85;;
69670;Laerm;66535;52.370;4.832;2023-05-07T01:04:55;40.06;36.62;47.57;;
69670;Laerm;66535;52.370;4.832;2023-05-07T01:05:28;45.46;39.70;52.23;;
69670;Laerm;66535;52.370;4.832;2023-05-07T01:06:01;41.87;37.18;57.26;;
69670;Laerm;66535;52.370;4.832;2023-05-07T01:06:33;38.72;36.48;44.14;;
69670;Laerm;66535;52.370;4.832;2023-05-07T01:07:05;45.12;37.40;60.08;;
69670;Laerm;66535;52.370;4.832;2023-05-07T01:07:37;43.59;37.28;55.61;;
69670;Laerm;66535;52.370;4.832;2023-05-07T01:08:09;49.82;40.10;69.10;;
69670;Laerm;66535;52.370;4.832;2023-05-07T01:08:43;49.72;39.08;66.98;;
69670;Laerm;66535;52.370;4.832;2023-05-07T01:09:15;38.54;36.95;40.58;;
69670;Laerm;66535;52.370;4.832;2023-05-07T01:09:47;42.48;37.87;51.69;;
69670;Laerm;66535;52.370;4.832;2023-05-07T01:10:19;44.84;40.14;55.29;;
69670;Laerm;66535;52.370;4.832;2023-05-07T01:10:51;40.96;37.78;45.93;;
69670;Laerm;66535;52.370;4.832;2023-05-07T01:11:22;43.64;37.58;57.43;;
69670;Laerm;66535;52.370;4.832;2023-05-07T01:11:54;43.92;39.62;62.12;;
69670;Laerm;66535;52.370;4.832;2023-05-07T01:12:28;45.80;41.27;55.12;;
69670;Laerm;66535;52.370;4.832;2023-05-07T01:13:00;44.46;39.96;56.57;;
69670;Laerm;66535;52.370;4.832;2023-05-07T01:13:32;64.38;42.42;91.99;;
69670;Laerm;66535;52.370;4.832;2023-05-07T01:14:05;59.09;38.15;81.89;;
69670;Laerm;66535;52.370;4.832;2023-05-07T01:14:38;43.43;38.68;62.48;;
69670;Laerm;66535;52.370;4.832;2023-05-07T01:15:09;47.22;39.71;54.99;;
69670;Laerm;66535;52.370;4.832;2023-05-07T01:15:42;46.67;40.80;56.88;;
69670;Laerm;66535;52.370;4.832;2023-05-07T01:16:14;42.31;38.61;46.78;;
69670;Laerm;66535;52.370;4.832;2023-05-07T01:16:45;39.63;37.21;42.32;;
69670;Laerm;66535;52.370;4.832;2023-05-07T01:17:17;40.78;36.53;48.74;;
69670;Laerm;66535;52.370;4.832;2023-05-07T01:17:49;39.70;37.20;46.86;;
69670;Laerm;66535;52.370;4.832;2023-05-07T01:18:20;43.22;37.90;48.02;;
69670;Laerm;66535;52.370;4.832;2023-05-07T01:18:53;41.65;39.13;46.37;;
69670;Laerm;66535;52.370;4.832;2023-05-07T01:19:24;40.13;37.31;44.66;;
69670;Laerm;66535;52.370;4.832;2023-05-07T01:19:55;38.43;36.43;40.50;;
69670;Laerm;66535;52.370;4.832;2023-05-07T01:20:28;42.49;37.54;47.55;;
69670;Laerm;66535;52.370;4.832;2023-05-07T01:20:59;39.89;37.66;43.12;;
69670;Laerm;66535;52.370;4.832;2023-05-07T01:21:33;41.00;37.85;48.80;;
69670;Laerm;66535;52.370;4.832;2023-05-07T01:22:08;40.21;37.67;58.33;;
69670;Laerm;66535;52.370;4.832;2023-05-07T01:22:42;44.02;39.23;48.18;;
69670;Laerm;66535;52.370;4.832;2023-05-07T01:23:14;41.93;38.04;51.31;;
69670;Laerm;66535;52.370;4.832;2023-05-07T01:23:46;40.41;38.27;43.06;;
69670;Laerm;66535;52.370;4.832;2023-05-07T01:24:19;41.39;38.44;50.90;;
69670;Laerm;66535;52.370;4.832;2023-05-07T01:24:50;40.65;38.30;44.38;;
69670;Laerm;66535;52.370;4.832;2023-05-07T01:25:22;39.62;37.72;43.54;;
69670;Laerm;66535;52.370;4.832;2023-05-07T01:25:53;42.13;38.51;48.10;;
69670;Laerm;66535;52.370;4.832;2023-05-07T01:26:26;55.84;38.85;67.31;;
69670;Laerm;66535;52.370;4.832;2023-05-07T01:26:58;39.38;37.48;51.06;;
69670;Laerm;66535;52.370;4.832;2023-05-07T01:27:29;40.18;37.96;42.67;;
69670;Laerm;66535;52.370;4.832;2023-05-07T01:28:00;42.20;39.01;48.94;;
69670;Laerm;66535;52.370;4.832;2023-05-07T01:28:33;45.70;38.44;55.31;;
69670;Laerm;66535;52.370;4.832;2023-05-07T01:29:04;40.21;38.09;52.39;;
69670;Laerm;66535;52.370;4.832;2023-05-07T01:29:35;42.84;39.42;51.79;;
69670;Laerm;66535;52.370;4.832;2023-05-07T01:30:08;42.27;37.76;48.38;;
69670;Laerm;66535;52.370;4.832;2023-05-07T01:30:39;39.67;36.83;43.49;;
69670;Laerm;66535;52.370;4.832;2023-05-07T01:31:13;41.47;37.57;46.15;;
69670;Laerm;66535;52.370;4.832;2023-05-07T01:31:46;39.71;37.15;42.23;;
69670;Laerm;66535;52.370;4.832;2023-05-07T01:32:21;43.33;38.79;48.64;;
69670;Laerm;66535;52.370;4.832;2023-05-07T01:32:58;44.10;39.55;48.31;;
69670;Laerm;66535;52.370;4.832;2023-05-07T01:33:33;41.53;38.70;46.54;;
69670;Laerm;66535;52.370;4.832;2023-05-07T01:34:06;41.25;38.39;45.33;;
69670;Laerm;66535;52.370;4.832;2023-05-07T01:34:38;40.03;38.00;42.91;;
69670;Laerm;66535;52.370;4.832;2023-05-07T01:35:12;41.34;37.48;48.50;;
69670;Laerm;66535;52.370;4.832;2023-05-07T01:35:46;45.93;40.25;55.16;;
69670;Laerm;66535;52.370;4.832;2023-05-07T01:36:18;41.98;38.65;46.90;;
69670;Laerm;66535;52.370;4.832;2023-05-07T01:36:51;40.99;38.21;45.25;;
69670;Laerm;66535;52.370;4.832;2023-05-07T01:37:24;47.65;41.93;55.67;;
69670;Laerm;66535;52.370;4.832;2023-05-07T01:37:57;44.00;40.58;47.84;;
69670;Laerm;66535;52.370;4.832;2023-05-07T01:38:29;44.38;39.96;57.66;;
69670;Laerm;66535;52.370;4.832;2023-05-07T01:39:01;42.75;39.27;55.35;;
69670;Laerm;66535;52.370;4.832;2023-05-07T01:39:33;44.27;40.08;51.48;;
69670;Laerm;66535;52.370;4.832;2023-05-07T01:40:05;42.89;39.14;51.80;;
69670;Laerm;66535;52.370;4.832;2023-05-07T01:40:38;41.14;38.07;43.94;;
69670;Laerm;66535;52.370;4.832;2023-05-07T01:41:09;43.71;39.96;55.07;;
69670;Laerm;66535;52.370;4.832;2023-05-07T01:41:41;43.67;39.55;48.39;;
69670;Laerm;66535;52.370;4.832;2023-05-07T01:42:14;40.09;38.11;48.19;;
69670;Laerm;66535;52.370;4.832;2023-05-07T01:42:46;45.23;39.88;53.42;;
69670;Laerm;66535;52.370;4.832;2023-05-07T01:43:17;41.37;38.51;51.45;;
69670;Laerm;66535;52.370;4.832;2023-05-07T01:43:50;41.97;38.67;45.73;;
69670;Laerm;66535;52.370;4.832;2023-05-07T01:44:22;45.87;40.17;51.28;;
69670;Laerm;66535;52.370;4.832;2023-05-07T01:44:53;41.35;39.29;44.84;;
69670;Laerm;66535;52.370;4.832;2023-05-07T01:45:26;41.61;38.93;45.30;;
69670;Laerm;66535;52.370;4.832;2023-05-07T01:45:58;44.01;38.72;48.74;;
69670;Laerm;66535;52.370;4.832;2023-05-07T01:46:29;42.63;39.87;53.82;;
69670;Laerm;66535;52.370;4.832;2023-05-07T01:47:03;42.84;38.43;47.98;;
69670;Laerm;66535;52.370;4.832;2023-05-07T01:47:37;40.24;36.84;43.26;;
69670;Laerm;66535;52.370;4.832;2023-05-07T01:48:09;39.94;37.42;48.52;;
69670;Laerm;66535;52.370;4.832;2023-05-07T01:48:42;42.16;38.49;47.18;;
69670;Laerm;66535;52.370;4.832;2023-05-07T01:49:16;41.99;38.16;46.47;;
69670;Laerm;66535;52.370;4.832;2023-05-07T01:49:48;41.14;38.56;44.25;;
69670;Laerm;66535;52.370;4.832;2023-05-07T01:50:20;40.41;38.07;56.44;;
69670;Laerm;66535;52.370;4.832;2023-05-07T01:50:52;43.22;38.62;48.88;;
69670;Laerm;66535;52.370;4.832;2023-05-07T01:51:23;47.75;42.70;54.68;;
69670;Laerm;66535;52.370;4.832;2023-05-07T01:51:54;45.54;40.15;53.48;;
69670;Laerm;66535;52.370;4.832;2023-05-07T01:52:27;42.33;39.64;46.17;;
69670;Laerm;66535;52.370;4.832;2023-05-07T01:53:01;42.21;39.28;47.02;;
69670;Laerm;66535;52.370;4.832;2023-05-07T01:53:35;43.68;39.65;48.38;;
69670;Laerm;66535;52.370;4.832;2023-05-07T01:54:08;44.72;39.26;54.52;;
69670;Laerm;66535;52.370;4.832;2023-05-07T01:54:39;40.13;37.91;56.14;;
69670;Laerm;66535;52.370;4.832;2023-05-07T01:55:10;40.07;38.28;48.57;;
69670;Laerm;66535;52.370;4.832;2023-05-07T01:55:43;40.39;38.21;43.16;;
69670;Laerm;66535;52.370;4.832;2023-05-07T01:56:14;41.88;39.51;54.28;;
69670;Laerm;66535;52.370;4.832;2023-05-07T01:56:46;46.48;40.26;55.27;;
69670;Laerm;66535;52.370;4.832;2023-05-07T01:57:19;46.30;39.64;58.92;;
69670;Laerm;66535;52.370;4.832;2023-05-07T01:57:51;51.11;42.10;60.53;;
69670;Laerm;66535;52.370;4.832;2023-05-07T01:58:22;43.46;39.76;46.62;;
69670;Laerm;66535;52.370;4.832;2023-05-07T01:58:55;42.14;39.13;49.48;;
69670;Laerm;66535;52.370;4.832;2023-05-07T01:59:26;43.05;40.00;48.97;;
69670;Laerm;66535;52.370;4.832;2023-05-07T01:59:57;42.68;39.70;48.17;;
69670;Laerm;66535;52.370;4.832;2023-05-07T02:00:29;43.06;40.89;46.55;;
69670;Laerm;66535;52.370;4.832;2023-05-07T02:01:01;42.02;39.25;46.22;;
69670;Laerm;66535;52.370;4.832;2023-05-07T02:01:32;41.33;39.26;46.55;;
69670;Laerm;66535;52.370;4.832;2023-05-07T02:02:04;46.51;39.41;56.39;;
69670;Laerm;66535;52.370;4.832;2023-05-07T02:02:35;42.12;39.01;47.62;;
69670;Laerm;66535;52.370;4.832;2023-05-07T02:03:08;44.58;38.73;59.17;;
69670;Laerm;66535;52.370;4.832;2023-05-07T02:03:40;44.51;38.41;62.62;;
69670;Laerm;66535;52.370;4.832;2023-05-07T02:04:11;41.38;38.21;52.04;;
69670;Laerm;66535;52.370;4.832;2023-05-07T02:04:43;40.82;37.94;52.40;;
69670;Laerm;66535;52.370;4.832;2023-05-07T02:05:15;43.53;38.30;59.52;;
69670;Laerm;66535;52.370;4.832;2023-05-07T02:05:46;44.07;38.39;54.43;;
69670;Laerm;66535;52.370;4.832;2023-05-07T02:06:17;45.06;39.29;54.70;;
69670;Laerm;66535;52.370;4.832;2023-05-07T02:06:50;42.97;38.69;59.28;;
69670;Laerm;66535;52.370;4.832;2023-05-07T02:07:21;44.69;39.50;54.60;;
69670;Laerm;66535;52.370;4.832;2023-05-07T02:07:52;41.78;38.75;55.53;;
69670;Laerm;66535;52.370;4.832;2023-05-07T02:08:26;41.92;38.93;53.90;;
69670;Laerm;66535;52.370;4.832;2023-05-07T02:08:57;44.25;40.05;53.87;;
69670;Laerm;66535;52.370;4.832;2023-05-07T02:09:29;43.69;39.97;51.49;;
69670;Laerm;66535;52.370;4.832;2023-05-07T02:10:01;40.92;38.78;56.08;;
69670;Laerm;66535;52.370;4.832;2023-05-07T02:10:33;43.19;38.54;48.53;;
69670;Laerm;66535;52.370;4.832;2023-05-07T02:11:05;43.09;40.72;45.61;;
69670;Laerm;66535;52.370;4.832;2023-05-07T02:11:37;41.68;38.16;45.87;;
69670;Laerm;66535;52.370;4.832;2023-05-07T02:12:10;40.82;38.01;45.76;;
69670;Laerm;66535;52.370;4.832;2023-05-07T02:12:42;43.58;38.92;49.28;;
69670;Laerm;66535;52.370;4.832;2023-05-07T02:13:14;42.23;39.19;46.66;;
69670;Laerm;66535;52.370;4.832;2023-05-07T02:13:45;43.18;39.75;47.60;;
69670;Laerm;66535;52.370;4.832;2023-05-07T02:14:17;40.68;38.29;43.73;;
69670;Laerm;66535;52.370;4.832;2023-05-07T02:14:50;41.03;38.37;46.43;;
69670;Laerm;66535;52.370;4.832;2023-05-07T02:15:22;40.05;37.77;43.87;;
69670;Laerm;66535;52.370;4.832;2023-05-07T02:15:53;39.59;37.71;45.20;;
69670;Laerm;66535;52.370;4.832;2023-05-07T02:16:26;40.17;38.15;43.74;;
69670;Laerm;66535;52.370;4.832;2023-05-07T02:16:57;41.20;37.93;45.52;;
69670;Laerm;66535;52.370;4.832;2023-05-07T02:17:29;41.94;39.47;46.31;;
69670;Laerm;66535;52.370;4.832;2023-05-07T02:18:04;43.35;38.42;56.74;;
69670;Laerm;66535;52.370;4.832;2023-05-07T02:18:37;41.63;37.91;51.59;;
69670;Laerm;66535;52.370;4.832;2023-05-07T02:19:08;41.08;38.57;51.28;;
69670;Laerm;66535;52.370;4.832;2023-05-07T02:19:39;42.47;39.02;49.91;;
69670;Laerm;66535;52.370;4.832;2023-05-07T02:20:11;41.12;38.92;47.32;;
69670;Laerm;66535;52.370;4.832;2023-05-07T02:20:44;40.90;38.09;50.75;;
69670;Laerm;66535;52.370;4.832;2023-05-07T02:21:15;46.40;40.41;62.41;;
69670;Laerm;66535;52.370;4.832;2023-05-07T02:21:46;55.33;40.65;64.75;;
69670;Laerm;66535;52.370;4.832;2023-05-07T02:22:19;43.45;39.54;50.95;;
69670;Laerm;66535;52.370;4.832;2023-05-07T02:22:50;42.40;39.58;58.55;;
69670;Laerm;66535;52.370;4.832;2023-05-07T02:23:21;42.11;39.59;45.62;;
69670;Laerm;66535;52.370;4.832;2023-05-07T02:23:54;50.08;40.03;76.73;;
69670;Laerm;66535;52.370;4.832;2023-05-07T02:24:26;44.87;41.60;49.63;;
69670;Laerm;66535;52.370;4.832;2023-05-07T02:24:57;41.72;38.46;45.32;;
69670;Laerm;66535;52.370;4.832;2023-05-07T02:25:29;40.22;38.31;43.30;;
69670;Laerm;66535;52.370;4.832;2023-05-07T02:26:04;42.15;39.04;49.69;;
69670;Laerm;66535;52.370;4.832;2023-05-07T02:26:36;42.29;39.07;47.56;;
69670;Laerm;66535;52.370;4.832;2023-05-07T02:27:07;43.01;38.64;49.27;;
69670;Laerm;66535;52.370;4.832;2023-05-07T02:27:39;40.17;37.89;42.52;;
69670;Laerm;66535;52.370;4.832;2023-05-07T02:28:11;44.03;39.42;51.84;;
69670;Laerm;66535;52.370;4.832;2023-05-07T02:28:42;41.53;39.12;46.09;;
69670;Laerm;66535;52.370;4.832;2023-05-07T02:29:13;46.23;41.41;52.19;;
69670;Laerm;66535;52.370;4.832;2023-05-07T02:29:46;43.33;39.12;50.94;;
69670;Laerm;66535;52.370;4.832;2023-05-07T02:30:17;40.61;38.63;43.32;;
69670;Laerm;66535;52.370;4.832;2023-05-07T02:30:49;43.40;39.77;49.31;;
69670;Laerm;66535;52.370;4.832;2023-05-07T02:31:21;42.90;39.84;50.11;;
69670;Laerm;66535;52.370;4.832;2023-05-07T02:31:52;44.75;39.59;57.69;;
69670;Laerm;66535;52.370;4.832;2023-05-07T02:32:23;44.09;38.63;52.38;;
69670;Laerm;66535;52.370;4.832;2023-05-07T02:32:56;42.69;39.11;49.70;;
69670;Laerm;66535;52.370;4.832;2023-05-07T02:33:27;42.29;38.74;47.41;;
69670;Laerm;66535;52.370;4.832;2023-05-07T02:33:58;42.10;39.01;50.21;;
69670;Laerm;66535;52.370;4.832;2023-05-07T02:34:30;43.78;39.12;53.73;;
69670;Laerm;66535;52.370;4.832;2023-05-07T02:35:02;46.97;40.16;55.36;;
69670;Laerm;66535;52.370;4.832;2023-05-07T02:35:33;41.70;39.01;47.61;;
69670;Laerm;66535;52.370;4.832;2023-05-07T02:36:05;41.97;38.87;47.79;;
69670;Laerm;66535;52.370;4.832;2023-05-07T02:36:38;44.63;39.11;52.35;;
69670;Laerm;66535;52.370;4.832;2023-05-07T02:37:09;47.49;40.40;57.42;;
69670;Laerm;66535;52.370;4.832;2023-05-07T02:37:41;42.77;39.04;50.46;;
69670;Laerm;66535;52.370;4.832;2023-05-07T02:38:13;52.89;41.02;57.75;;
69670;Laerm;66535;52.370;4.832;2023-05-07T02:38:44;42.78;39.34;52.19;;
69670;Laerm;66535;52.370;4.832;2023-05-07T02:39:17;41.62;39.17;48.70;;
69670;Laerm;66535;52.370;4.832;2023-05-07T02:39:49;43.03;39.20;49.40;;
69670;Laerm;66535;52.370;4.832;2023-05-07T02:40:21;45.00;39.33;62.31;;
69670;Laerm;66535;52.370;4.832;2023-05-07T02:40:52;42.97;39.48;50.45;;
69670;Laerm;66535;52.370;4.832;2023-05-07T02:41:24;43.39;38.51;51.91;;
69670;Laerm;66535;52.370;4.832;2023-05-07T02:41:56;42.51;38.32;52.85;;
69670;Laerm;66535;52.370;4.832;2023-05-07T02:42:27;44.50;38.00;55.18;;
69670;Laerm;66535;52.370;4.832;2023-05-07T02:42:58;46.60;39.51;58.32;;
69670;Laerm;66535;52.370;4.832;2023-05-07T02:43:30;47.20;39.99;62.60;;
69670;Laerm;66535;52.370;4.832;2023-05-07T02:44:02;45.79;39.11;54.82;;
69670;Laerm;66535;52.370;4.832;2023-05-07T02:44:33;44.24;37.81;59.62;;
69670;Laerm;66535;52.370;4.832;2023-05-07T02:45:07;45.51;38.22;58.66;;
69670;Laerm;66535;52.370;4.832;2023-05-07T02:45:39;43.48;38.90;55.68;;
69670;Laerm;66535;52.370;4.832;2023-05-07T02:46:10;45.57;39.21;60.66;;
69670;Laerm;66535;52.370;4.832;2023-05-07T02:46:42;45.14;38.48;58.03;;
69670;Laerm;66535;52.370;4.832;2023-05-07T02:47:14;50.27;39.15;67.03;;
69670;Laerm;66535;52.370;4.832;2023-05-07T02:47:46;44.70;39.35;60.87;;
69670;Laerm;66535;52.370;4.832;2023-05-07T02:48:17;46.05;39.90;58.78;;
69670;Laerm;66535;52.370;4.832;2023-05-07T02:48:49;45.28;39.19;57.69;;
69670;Laerm;66535;52.370;4.832;2023-05-07T02:49:21;44.93;37.73;56.05;;
69670;Laerm;66535;52.370;4.832;2023-05-07T02:49:52;44.93;38.69;57.99;;
69670;Laerm;66535;52.370;4.832;2023-05-07T02:50:23;50.13;40.17;69.19;;
69670;Laerm;66535;52.370;4.832;2023-05-07T02:50:56;58.59;40.41;73.78;;
69670;Laerm;66535;52.370;4.832;2023-05-07T02:51:27;61.73;41.14;76.14;;
69670;Laerm;66535;52.370;4.832;2023-05-07T02:51:58;60.11;40.75;76.52;;
69670;Laerm;66535;52.370;4.832;2023-05-07T02:52:29;55.64;39.44;70.60;;
69670;Laerm;66535;52.370;4.832;2023-05-07T02:53:02;56.02;39.13;70.66;;
69670;Laerm;66535;52.370;4.832;2023-05-07T02:53:33;56.61;39.03;71.02;;
69670;Laerm;66535;52.370;4.832;2023-05-07T02:54:05;54.86;40.01;71.92;;
69670;Laerm;66535;52.370;4.832;2023-05-07T02:54:39;54.08;42.22;70.05;;
69670;Laerm;66535;52.370;4.832;2023-05-07T02:55:10;55.49;38.94;71.28;;
69670;Laerm;66535;52.370;4.832;2023-05-07T02:55:41;55.21;39.41;71.43;;
69670;Laerm;66535;52.370;4.832;2023-05-07T02:56:13;53.31;38.83;70.68;;
69670;Laerm;66535;52.370;4.832;2023-05-07T02:56:45;53.81;39.57;69.66;;
69670;Laerm;66535;52.370;4.832;2023-05-07T02:57:16;54.83;40.09;70.54;;
69670;Laerm;66535;52.370;4.832;2023-05-07T02:57:48;55.17;38.21;71.02;;
69670;Laerm;66535;52.370;4.832;2023-05-07T02:58:19;55.47;39.29;71.74;;
69670;Laerm;66535;52.370;4.832;2023-05-07T02:58:51;58.08;40.49;74.99;;
69670;Laerm;66535;52.370;4.832;2023-05-07T02:59:22;58.41;39.86;73.85;;